sensor_id;sensor_type;location;lat;lon;timestamp;P1;durP1;ratioP1;P2;durP2;ratioP2
5674;SDS011;2860;54.284;10.158;2022-10-15T00:01:31;21.60;;;16.73;;
5674;SDS011;2860;54.284;10.158;2022-10-15T00:03:57;26.77;;;17.13;;
5674;SDS011;2860;54.284;10.158;2022-10-15T00:06:24;22.75;;;17.38;;
5674;SDS011;2860;54.284;10.158;2022-10-15T00:08:49;27.70;;;18.63;;
5674;SDS011;2860;54.284;10.158;2022-10-15T00:11:19;30.40;;;16.48;;
5674;SDS011;2860;54.284;10.158;2022-10-15T00:13:46;27.10;;;17.30;;
5674;SDS011;2860;54.284;10.158;2022-10-15T00:16:13;24.83;;;16.88;;
5674;SDS011;2860;54.284;10.158;2022-10-15T00:18:40;36.53;;;18.20;;
5674;SDS011;2860;54.284;10.158;2022-10-15T00:21:07;32.13;;;19.13;;
5674;SDS011;2860;54.284;10.158;2022-10-15T00:23:34;30.60;;;19.00;;
5674;SDS011;2860;54.284;10.158;2022-10-15T00:26:02;31.38;;;17.92;;
5674;SDS011;2860;54.284;10.158;2022-10-15T00:28:32;29.10;;;18.58;;
5674;SDS011;2860;54.284;10.158;2022-10-15T00:31:01;27.80;;;18.38;;
5674;SDS011;2860;54.284;10.158;2022-10-15T00:33:28;29.40;;;19.05;;
5674;SDS011;2860;54.284;10.158;2022-10-15T00:35:58;55.90;;;22.08;;
5674;SDS011;2860;54.284;10.158;2022-10-15T00:38:24;34.60;;;17.70;;
5674;SDS011;2860;54.284;10.158;2022-10-15T00:40:50;30.67;;;18.25;;
5674;SDS011;2860;54.284;10.158;2022-10-15T00:43:15;33.40;;;20.85;;
5674;SDS011;2860;54.284;10.158;2022-10-15T00:45:41;35.78;;;18.50;;
5674;SDS011;2860;54.284;10.158;2022-10-15T00:48:06;34.67;;;19.42;;
5674;SDS011;2860;54.284;10.158;2022-10-15T00:50:32;37.33;;;19.52;;
5674;SDS011;2860;54.284;10.158;2022-10-15T00:53:00;32.75;;;19.55;;
5674;SDS011;2860;54.284;10.158;2022-10-15T00:55:30;48.95;;;20.80;;
5674;SDS011;2860;54.284;10.158;2022-10-15T00:57:59;31.88;;;20.42;;
5674;SDS011;2860;54.284;10.158;2022-10-15T01:00:29;36.53;;;19.65;;
5674;SDS011;2860;54.284;10.158;2022-10-15T01:02:55;32.42;;;19.80;;
5674;SDS011;2860;54.284;10.158;2022-10-15T01:05:21;41.25;;;20.52;;
5674;SDS011;2860;54.284;10.158;2022-10-15T01:07:48;34.05;;;20.48;;
5674;SDS011;2860;54.284;10.158;2022-10-15T01:10:13;29.20;;;19.70;;
5674;SDS011;2860;54.284;10.158;2022-10-15T01:12:51;36.83;;;18.75;;
5674;SDS011;2860;54.284;10.158;2022-10-15T01:15:41;35.53;;;19.27;;
5674;SDS011;2860;54.284;10.158;2022-10-15T01:18:32;30.50;;;20.08;;
5674;SDS011;2860;54.284;10.158;2022-10-15T01:21:21;52.38;;;21.88;;
5674;SDS011;2860;54.284;10.158;2022-10-15T01:32:39;28.67;;;18.60;;
5674;SDS011;2860;54.284;10.158;2022-10-15T01:35:40;51.30;;;18.77;;
5674;SDS011;2860;54.284;10.158;2022-10-15T01:43:27;31.73;;;19.27;;
5674;SDS011;2860;54.284;10.158;2022-10-15T01:46:01;41.28;;;20.70;;
5674;SDS011;2860;54.284;10.158;2022-10-15T01:48:33;39.85;;;21.58;;
5674;SDS011;2860;54.284;10.158;2022-10-15T01:51:00;44.08;;;20.05;;
5674;SDS011;2860;54.284;10.158;2022-10-15T01:53:28;58.90;;;22.42;;
5674;SDS011;2860;54.284;10.158;2022-10-15T01:55:59;42.38;;;21.35;;
5674;SDS011;2860;54.284;10.158;2022-10-15T01:58:29;44.80;;;22.05;;
5674;SDS011;2860;54.284;10.158;2022-10-15T02:00:55;41.30;;;20.80;;
5674;SDS011;2860;54.284;10.158;2022-10-15T02:03:22;52.22;;;23.55;;
5674;SDS011;2860;54.284;10.158;2022-10-15T02:05:52;61.47;;;23.85;;
5674;SDS011;2860;54.284;10.158;2022-10-15T02:11:18;37.17;;;21.15;;
5674;SDS011;2860;54.284;10.158;2022-10-15T02:16:27;33.60;;;20.45;;
5674;SDS011;2860;54.284;10.158;2022-10-15T02:24:39;44.65;;;22.38;;
5674;SDS011;2860;54.284;10.158;2022-10-15T02:27:09;79.90;;;22.50;;
5674;SDS011;2860;54.284;10.158;2022-10-15T02:29:38;38.80;;;21.75;;
5674;SDS011;2860;54.284;10.158;2022-10-15T02:32:06;43.75;;;25.20;;
5674;SDS011;2860;54.284;10.158;2022-10-15T02:34:34;52.47;;;24.73;;
5674;SDS011;2860;54.284;10.158;2022-10-15T02:37:01;41.47;;;23.05;;
5674;SDS011;2860;54.284;10.158;2022-10-15T02:39:28;57.75;;;25.83;;
5674;SDS011;2860;54.284;10.158;2022-10-15T02:41:54;56.42;;;26.83;;
5674;SDS011;2860;54.284;10.158;2022-10-15T02:44:21;57.75;;;27.00;;
5674;SDS011;2860;54.284;10.158;2022-10-15T02:46:47;58.45;;;24.90;;
5674;SDS011;2860;54.284;10.158;2022-10-15T02:49:12;67.20;;;24.80;;
5674;SDS011;2860;54.284;10.158;2022-10-15T02:51:38;56.63;;;25.77;;
5674;SDS011;2860;54.284;10.158;2022-10-15T02:54:04;80.25;;;26.15;;
5674;SDS011;2860;54.284;10.158;2022-10-15T02:56:31;55.03;;;24.02;;
5674;SDS011;2860;54.284;10.158;2022-10-15T02:58:57;78.63;;;25.17;;
5674;SDS011;2860;54.284;10.158;2022-10-15T03:01:22;52.20;;;25.58;;
5674;SDS011;2860;54.284;10.158;2022-10-15T03:03:48;53.10;;;25.25;;
5674;SDS011;2860;54.284;10.158;2022-10-15T03:06:14;43.88;;;22.25;;
5674;SDS011;2860;54.284;10.158;2022-10-15T03:08:39;49.05;;;22.10;;
5674;SDS011;2860;54.284;10.158;2022-10-15T03:11:06;51.15;;;25.65;;
5674;SDS011;2860;54.284;10.158;2022-10-15T03:13:36;50.22;;;25.63;;
5674;SDS011;2860;54.284;10.158;2022-10-15T03:16:09;58.42;;;26.33;;
5674;SDS011;2860;54.284;10.158;2022-10-15T03:18:35;80.95;;;25.58;;
5674;SDS011;2860;54.284;10.158;2022-10-15T03:21:02;84.55;;;28.02;;
5674;SDS011;2860;54.284;10.158;2022-10-15T03:23:28;72.65;;;26.20;;
5674;SDS011;2860;54.284;10.158;2022-10-15T03:25:54;101.03;;;26.15;;
5674;SDS011;2860;54.284;10.158;2022-10-15T03:28:20;60.45;;;25.98;;
5674;SDS011;2860;54.284;10.158;2022-10-15T03:30:46;109.50;;;27.85;;
5674;SDS011;2860;54.284;10.158;2022-10-15T03:33:12;116.45;;;25.48;;
5674;SDS011;2860;54.284;10.158;2022-10-15T03:35:37;84.63;;;25.75;;
5674;SDS011;2860;54.284;10.158;2022-10-15T03:38:04;86.18;;;29.55;;
5674;SDS011;2860;54.284;10.158;2022-10-15T03:40:30;97.05;;;28.70;;
5674;SDS011;2860;54.284;10.158;2022-10-15T03:42:55;72.85;;;27.58;;
5674;SDS011;2860;54.284;10.158;2022-10-15T03:45:21;97.15;;;29.58;;
5674;SDS011;2860;54.284;10.158;2022-10-15T03:47:47;109.10;;;28.70;;
5674;SDS011;2860;54.284;10.158;2022-10-15T03:50:13;98.93;;;29.95;;
5674;SDS011;2860;54.284;10.158;2022-10-15T03:52:40;78.07;;;28.65;;
5674;SDS011;2860;54.284;10.158;2022-10-15T03:55:06;92.70;;;29.90;;
5674;SDS011;2860;54.284;10.158;2022-10-15T03:57:32;95.45;;;30.02;;
5674;SDS011;2860;54.284;10.158;2022-10-15T03:59:58;104.90;;;29.73;;
5674;SDS011;2860;54.284;10.158;2022-10-15T04:02:23;181.82;;;31.77;;
5674;SDS011;2860;54.284;10.158;2022-10-15T04:04:52;77.82;;;27.13;;
5674;SDS011;2860;54.284;10.158;2022-10-15T04:07:19;98.20;;;28.85;;
5674;SDS011;2860;54.284;10.158;2022-10-15T04:09:45;83.70;;;29.23;;
5674;SDS011;2860;54.284;10.158;2022-10-15T04:12:11;120.18;;;29.08;;
5674;SDS011;2860;54.284;10.158;2022-10-15T04:14:36;112.28;;;29.90;;
5674;SDS011;2860;54.284;10.158;2022-10-15T04:17:02;102.63;;;29.10;;
5674;SDS011;2860;54.284;10.158;2022-10-15T04:19:27;141.15;;;28.52;;
5674;SDS011;2860;54.284;10.158;2022-10-15T04:21:53;98.53;;;29.02;;
5674;SDS011;2860;54.284;10.158;2022-10-15T04:24:18;125.97;;;32.70;;
5674;SDS011;2860;54.284;10.158;2022-10-15T04:26:44;179.73;;;29.17;;
5674;SDS011;2860;54.284;10.158;2022-10-15T04:29:09;178.88;;;31.63;;
5674;SDS011;2860;54.284;10.158;2022-10-15T04:31:35;101.47;;;29.25;;
5674;SDS011;2860;54.284;10.158;2022-10-15T04:34:01;141.10;;;29.10;;
5674;SDS011;2860;54.284;10.158;2022-10-15T04:36:27;94.97;;;31.50;;
5674;SDS011;2860;54.284;10.158;2022-10-15T04:38:52;121.90;;;28.75;;
5674;SDS011;2860;54.284;10.158;2022-10-15T04:41:18;99.78;;;30.40;;
5674;SDS011;2860;54.284;10.158;2022-10-15T04:43:44;90.85;;;31.05;;
5674;SDS011;2860;54.284;10.158;2022-10-15T04:46:09;96.47;;;29.50;;
5674;SDS011;2860;54.284;10.158;2022-10-15T04:48:35;101.38;;;30.25;;
5674;SDS011;2860;54.284;10.158;2022-10-15T04:51:05;112.55;;;31.73;;
5674;SDS011;2860;54.284;10.158;2022-10-15T04:53:38;105.55;;;29.10;;
5674;SDS011;2860;54.284;10.158;2022-10-15T04:56:05;127.05;;;28.33;;
5674;SDS011;2860;54.284;10.158;2022-10-15T04:58:33;134.68;;;30.35;;
5674;SDS011;2860;54.284;10.158;2022-10-15T05:01:03;103.43;;;32.38;;
5674;SDS011;2860;54.284;10.158;2022-10-15T05:03:31;155.23;;;30.58;;
5674;SDS011;2860;54.284;10.158;2022-10-15T05:06:01;133.23;;;30.10;;
5674;SDS011;2860;54.284;10.158;2022-10-15T05:08:28;131.48;;;32.13;;
5674;SDS011;2860;54.284;10.158;2022-10-15T05:10:54;98.85;;;32.55;;
5674;SDS011;2860;54.284;10.158;2022-10-15T05:13:24;116.70;;;31.15;;
5674;SDS011;2860;54.284;10.158;2022-10-15T05:15:50;103.40;;;29.90;;
5674;SDS011;2860;54.284;10.158;2022-10-15T05:18:15;123.45;;;30.95;;
5674;SDS011;2860;54.284;10.158;2022-10-15T05:20:41;122.63;;;30.52;;
5674;SDS011;2860;54.284;10.158;2022-10-15T05:23:06;104.90;;;30.90;;
5674;SDS011;2860;54.284;10.158;2022-10-15T05:25:32;125.75;;;32.55;;
5674;SDS011;2860;54.284;10.158;2022-10-15T05:27:57;93.80;;;30.38;;
5674;SDS011;2860;54.284;10.158;2022-10-15T05:30:23;128.32;;;30.55;;
5674;SDS011;2860;54.284;10.158;2022-10-15T05:32:51;91.47;;;27.67;;
5674;SDS011;2860;54.284;10.158;2022-10-15T05:35:18;83.07;;;30.00;;
5674;SDS011;2860;54.284;10.158;2022-10-15T05:37:44;96.80;;;28.40;;
5674;SDS011;2860;54.284;10.158;2022-10-15T05:40:09;100.07;;;30.30;;
5674;SDS011;2860;54.284;10.158;2022-10-15T05:42:35;79.72;;;28.17;;
5674;SDS011;2860;54.284;10.158;2022-10-15T05:45:01;95.10;;;30.02;;
5674;SDS011;2860;54.284;10.158;2022-10-15T05:47:26;102.57;;;29.60;;
5674;SDS011;2860;54.284;10.158;2022-10-15T05:49:52;95.68;;;29.67;;
5674;SDS011;2860;54.284;10.158;2022-10-15T05:52:17;108.80;;;29.52;;
5674;SDS011;2860;54.284;10.158;2022-10-15T05:54:43;95.20;;;28.92;;
5674;SDS011;2860;54.284;10.158;2022-10-15T05:57:08;86.80;;;28.60;;
5674;SDS011;2860;54.284;10.158;2022-10-15T05:59:34;100.65;;;29.05;;
5674;SDS011;2860;54.284;10.158;2022-10-15T06:01:59;145.13;;;33.90;;
5674;SDS011;2860;54.284;10.158;2022-10-15T06:04:25;73.20;;;28.73;;
5674;SDS011;2860;54.284;10.158;2022-10-15T06:06:50;77.55;;;27.45;;
5674;SDS011;2860;54.284;10.158;2022-10-15T06:09:16;95.78;;;25.98;;
5674;SDS011;2860;54.284;10.158;2022-10-15T06:11:41;172.35;;;28.60;;
5674;SDS011;2860;54.284;10.158;2022-10-15T06:14:07;111.20;;;27.77;;
5674;SDS011;2860;54.284;10.158;2022-10-15T06:16:33;99.60;;;28.27;;
5674;SDS011;2860;54.284;10.158;2022-10-15T06:18:58;93.05;;;28.55;;
5674;SDS011;2860;54.284;10.158;2022-10-15T06:21:24;99.90;;;31.15;;
5674;SDS011;2860;54.284;10.158;2022-10-15T06:23:49;109.28;;;28.42;;
5674;SDS011;2860;54.284;10.158;2022-10-15T06:26:15;98.90;;;32.75;;
5674;SDS011;2860;54.284;10.158;2022-10-15T06:28:40;98.78;;;30.75;;
5674;SDS011;2860;54.284;10.158;2022-10-15T06:31:06;120.03;;;31.08;;
5674;SDS011;2860;54.284;10.158;2022-10-15T06:33:32;113.10;;;32.47;;
5674;SDS011;2860;54.284;10.158;2022-10-15T06:36:01;84.68;;;30.40;;
5674;SDS011;2860;54.284;10.158;2022-10-15T06:38:29;88.90;;;27.38;;
5674;SDS011;2860;54.284;10.158;2022-10-15T06:40:55;97.13;;;27.00;;
5674;SDS011;2860;54.284;10.158;2022-10-15T06:43:20;78.28;;;27.55;;
5674;SDS011;2860;54.284;10.158;2022-10-15T06:45:46;84.13;;;25.60;;
5674;SDS011;2860;54.284;10.158;2022-10-15T06:48:11;63.72;;;24.63;;
5674;SDS011;2860;54.284;10.158;2022-10-15T06:50:37;77.45;;;25.13;;
5674;SDS011;2860;54.284;10.158;2022-10-15T06:53:03;91.45;;;22.20;;
5674;SDS011;2860;54.284;10.158;2022-10-15T06:55:29;78.25;;;24.02;;
5674;SDS011;2860;54.284;10.158;2022-10-15T06:57:55;69.85;;;25.48;;
5674;SDS011;2860;54.284;10.158;2022-10-15T07:00:21;66.18;;;22.75;;
5674;SDS011;2860;54.284;10.158;2022-10-15T07:02:48;56.33;;;21.77;;
5674;SDS011;2860;54.284;10.158;2022-10-15T07:05:14;75.43;;;21.88;;
5674;SDS011;2860;54.284;10.158;2022-10-15T07:07:40;61.05;;;22.13;;
5674;SDS011;2860;54.284;10.158;2022-10-15T07:10:06;67.22;;;24.13;;
5674;SDS011;2860;54.284;10.158;2022-10-15T07:12:32;73.80;;;25.85;;
5674;SDS011;2860;54.284;10.158;2022-10-15T07:14:57;72.75;;;24.77;;
5674;SDS011;2860;54.284;10.158;2022-10-15T07:17:23;79.25;;;25.58;;
5674;SDS011;2860;54.284;10.158;2022-10-15T07:19:48;80.63;;;25.00;;
5674;SDS011;2860;54.284;10.158;2022-10-15T07:22:14;72.80;;;24.90;;
5674;SDS011;2860;54.284;10.158;2022-10-15T07:24:39;73.45;;;25.20;;
5674;SDS011;2860;54.284;10.158;2022-10-15T07:27:05;85.53;;;28.38;;
5674;SDS011;2860;54.284;10.158;2022-10-15T07:29:30;115.55;;;27.90;;
5674;SDS011;2860;54.284;10.158;2022-10-15T07:31:56;125.95;;;27.90;;
5674;SDS011;2860;54.284;10.158;2022-10-15T07:34:22;90.65;;;25.80;;
5674;SDS011;2860;54.284;10.158;2022-10-15T07:36:47;77.25;;;26.15;;
5674;SDS011;2860;54.284;10.158;2022-10-15T07:39:13;88.30;;;26.92;;
5674;SDS011;2860;54.284;10.158;2022-10-15T07:41:41;93.15;;;27.48;;
5674;SDS011;2860;54.284;10.158;2022-10-15T07:44:07;159.10;;;26.70;;
5674;SDS011;2860;54.284;10.158;2022-10-15T07:46:32;81.50;;;27.13;;
5674;SDS011;2860;54.284;10.158;2022-10-15T07:48:58;78.25;;;27.15;;
5674;SDS011;2860;54.284;10.158;2022-10-15T07:51:23;88.07;;;26.35;;
5674;SDS011;2860;54.284;10.158;2022-10-15T07:53:49;77.50;;;27.50;;
5674;SDS011;2860;54.284;10.158;2022-10-15T07:56:15;113.43;;;27.27;;
5674;SDS011;2860;54.284;10.158;2022-10-15T07:58:41;92.03;;;26.60;;
5674;SDS011;2860;54.284;10.158;2022-10-15T08:01:07;91.18;;;25.95;;
5674;SDS011;2860;54.284;10.158;2022-10-15T08:03:35;75.22;;;26.02;;
5674;SDS011;2860;54.284;10.158;2022-10-15T08:06:05;82.80;;;28.00;;
5674;SDS011;2860;54.284;10.158;2022-10-15T08:08:32;82.47;;;28.10;;
5674;SDS011;2860;54.284;10.158;2022-10-15T08:11:03;81.90;;;28.45;;
5674;SDS011;2860;54.284;10.158;2022-10-15T08:13:32;78.57;;;27.80;;
5674;SDS011;2860;54.284;10.158;2022-10-15T08:15:58;72.88;;;25.83;;
5674;SDS011;2860;54.284;10.158;2022-10-15T08:18:23;78.47;;;26.23;;
5674;SDS011;2860;54.284;10.158;2022-10-15T08:20:49;80.65;;;26.08;;
5674;SDS011;2860;54.284;10.158;2022-10-15T08:23:15;75.47;;;24.52;;
5674;SDS011;2860;54.284;10.158;2022-10-15T08:25:41;71.18;;;27.13;;
5674;SDS011;2860;54.284;10.158;2022-10-15T08:28:07;65.95;;;24.85;;
5674;SDS011;2860;54.284;10.158;2022-10-15T08:30:36;72.50;;;24.35;;
5674;SDS011;2860;54.284;10.158;2022-10-15T08:33:01;76.05;;;24.02;;
5674;SDS011;2860;54.284;10.158;2022-10-15T08:35:27;72.22;;;25.02;;
5674;SDS011;2860;54.284;10.158;2022-10-15T08:37:53;76.32;;;25.30;;
5674;SDS011;2860;54.284;10.158;2022-10-15T08:40:19;74.47;;;24.15;;
5674;SDS011;2860;54.284;10.158;2022-10-15T08:42:46;61.55;;;22.25;;
5674;SDS011;2860;54.284;10.158;2022-10-15T08:45:17;74.38;;;24.00;;
5674;SDS011;2860;54.284;10.158;2022-10-15T08:47:57;58.38;;;22.60;;
5674;SDS011;2860;54.284;10.158;2022-10-15T08:53:22;58.17;;;21.67;;
5674;SDS011;2860;54.284;10.158;2022-10-15T08:55:50;66.03;;;21.92;;
5674;SDS011;2860;54.284;10.158;2022-10-15T09:06:26;66.22;;;23.70;;
5674;SDS011;2860;54.284;10.158;2022-10-15T09:09:00;65.15;;;22.75;;
5674;SDS011;2860;54.284;10.158;2022-10-15T09:11:46;66.32;;;22.60;;
5674;SDS011;2860;54.284;10.158;2022-10-15T09:14:36;62.17;;;23.02;;
5674;SDS011;2860;54.284;10.158;2022-10-15T09:17:17;60.15;;;22.95;;
5674;SDS011;2860;54.284;10.158;2022-10-15T09:19:45;67.85;;;24.70;;
5674;SDS011;2860;54.284;10.158;2022-10-15T09:22:17;70.45;;;23.83;;
5674;SDS011;2860;54.284;10.158;2022-10-15T09:24:45;74.72;;;25.08;;
5674;SDS011;2860;54.284;10.158;2022-10-15T09:29:49;77.50;;;24.95;;
5674;SDS011;2860;54.284;10.158;2022-10-15T09:32:38;63.00;;;25.33;;
5674;SDS011;2860;54.284;10.158;2022-10-15T09:35:18;77.85;;;26.70;;
5674;SDS011;2860;54.284;10.158;2022-10-15T09:38:04;63.30;;;23.80;;
5674;SDS011;2860;54.284;10.158;2022-10-15T09:40:46;65.78;;;23.88;;
5674;SDS011;2860;54.284;10.158;2022-10-15T09:43:35;73.22;;;27.33;;
5674;SDS011;2860;54.284;10.158;2022-10-15T09:46:02;75.25;;;26.27;;
5674;SDS011;2860;54.284;10.158;2022-10-15T09:48:32;62.55;;;26.73;;
5674;SDS011;2860;54.284;10.158;2022-10-15T09:51:23;64.97;;;26.02;;
5674;SDS011;2860;54.284;10.158;2022-10-15T09:54:02;73.32;;;27.27;;
5674;SDS011;2860;54.284;10.158;2022-10-15T09:56:38;67.47;;;27.58;;
5674;SDS011;2860;54.284;10.158;2022-10-15T09:59:16;65.53;;;25.55;;
5674;SDS011;2860;54.284;10.158;2022-10-15T10:02:00;84.95;;;29.60;;
5674;SDS011;2860;54.284;10.158;2022-10-15T10:04:29;69.78;;;28.75;;
5674;SDS011;2860;54.284;10.158;2022-10-15T10:06:56;72.47;;;27.73;;
5674;SDS011;2860;54.284;10.158;2022-10-15T10:11:59;72.65;;;28.15;;
5674;SDS011;2860;54.284;10.158;2022-10-15T10:14:39;75.50;;;30.20;;
5674;SDS011;2860;54.284;10.158;2022-10-15T10:17:16;77.18;;;29.38;;
5674;SDS011;2860;54.284;10.158;2022-10-15T10:19:45;61.50;;;29.02;;
5674;SDS011;2860;54.284;10.158;2022-10-15T10:22:26;73.05;;;30.92;;
5674;SDS011;2860;54.284;10.158;2022-10-15T10:24:51;64.97;;;29.48;;
5674;SDS011;2860;54.284;10.158;2022-10-15T10:27:18;52.55;;;28.48;;
5674;SDS011;2860;54.284;10.158;2022-10-15T10:29:53;58.13;;;29.15;;
5674;SDS011;2860;54.284;10.158;2022-10-15T10:32:27;58.08;;;28.25;;
5674;SDS011;2860;54.284;10.158;2022-10-15T10:34:55;46.70;;;27.00;;
5674;SDS011;2860;54.284;10.158;2022-10-15T10:37:23;57.88;;;29.17;;
5674;SDS011;2860;54.284;10.158;2022-10-15T10:39:57;52.47;;;30.02;;
5674;SDS011;2860;54.284;10.158;2022-10-15T10:42:25;56.08;;;28.80;;
5674;SDS011;2860;54.284;10.158;2022-10-15T10:45:17;46.55;;;26.15;;
5674;SDS011;2860;54.284;10.158;2022-10-15T10:47:45;49.80;;;26.70;;
5674;SDS011;2860;54.284;10.158;2022-10-15T10:50:30;46.47;;;27.85;;
5674;SDS011;2860;54.284;10.158;2022-10-15T10:53:09;56.65;;;28.33;;
5674;SDS011;2860;54.284;10.158;2022-10-15T10:55:48;49.30;;;28.33;;
5674;SDS011;2860;54.284;10.158;2022-10-15T10:58:19;50.92;;;26.85;;
5674;SDS011;2860;54.284;10.158;2022-10-15T11:00:47;47.03;;;27.80;;
5674;SDS011;2860;54.284;10.158;2022-10-15T11:03:35;44.63;;;26.60;;
5674;SDS011;2860;54.284;10.158;2022-10-15T11:09:00;42.03;;;25.73;;
5674;SDS011;2860;54.284;10.158;2022-10-15T11:17:34;36.67;;;23.13;;
5674;SDS011;2860;54.284;10.158;2022-10-15T11:20:17;32.30;;;21.60;;
5674;SDS011;2860;54.284;10.158;2022-10-15T11:28:51;35.47;;;22.00;;
5674;SDS011;2860;54.284;10.158;2022-10-15T11:31:35;50.55;;;23.95;;
5674;SDS011;2860;54.284;10.158;2022-10-15T11:42:52;33.15;;;20.50;;
5674;SDS011;2860;54.284;10.158;2022-10-15T11:48:18;28.95;;;18.55;;
5674;SDS011;2860;54.284;10.158;2022-10-15T11:50:55;31.85;;;20.27;;
5674;SDS011;2860;54.284;10.158;2022-10-15T11:53:41;29.10;;;19.55;;
5674;SDS011;2860;54.284;10.158;2022-10-15T11:56:23;25.95;;;17.98;;
5674;SDS011;2860;54.284;10.158;2022-10-15T11:58:58;26.88;;;18.17;;
5674;SDS011;2860;54.284;10.158;2022-10-15T12:01:44;28.95;;;18.38;;
5674;SDS011;2860;54.284;10.158;2022-10-15T12:04:22;26.77;;;18.75;;
5674;SDS011;2860;54.284;10.158;2022-10-15T12:06:57;31.98;;;18.38;;
5674;SDS011;2860;54.284;10.158;2022-10-15T12:09:25;28.95;;;18.58;;
5674;SDS011;2860;54.284;10.158;2022-10-15T12:12:02;26.67;;;17.25;;
5674;SDS011;2860;54.284;10.158;2022-10-15T12:14:40;25.63;;;18.90;;
5674;SDS011;2860;54.284;10.158;2022-10-15T12:17:16;24.50;;;18.92;;
5674;SDS011;2860;54.284;10.158;2022-10-15T12:20:27;25.67;;;17.80;;
5674;SDS011;2860;54.284;10.158;2022-10-15T12:22:39;25.63;;;16.52;;
5674;SDS011;2860;54.284;10.158;2022-10-15T12:25:38;20.33;;;16.33;;
5674;SDS011;2860;54.284;10.158;2022-10-15T12:30:39;22.50;;;16.42;;
5674;SDS011;2860;54.284;10.158;2022-10-15T12:33:25;24.30;;;16.30;;
5674;SDS011;2860;54.284;10.158;2022-10-15T12:36:20;20.50;;;15.27;;
5674;SDS011;2860;54.284;10.158;2022-10-15T12:39:03;19.55;;;15.82;;
5674;SDS011;2860;54.284;10.158;2022-10-15T12:41:38;19.58;;;15.77;;
5674;SDS011;2860;54.284;10.158;2022-10-15T12:44:14;23.40;;;15.48;;
5674;SDS011;2860;54.284;10.158;2022-10-15T12:46:46;19.92;;;15.25;;
5674;SDS011;2860;54.284;10.158;2022-10-15T12:51:56;17.55;;;13.90;;
5674;SDS011;2860;54.284;10.158;2022-10-15T12:54:34;21.80;;;15.05;;
5674;SDS011;2860;54.284;10.158;2022-10-15T13:00:14;19.08;;;13.68;;
5674;SDS011;2860;54.284;10.158;2022-10-15T13:02:49;20.30;;;14.88;;
5674;SDS011;2860;54.284;10.158;2022-10-15T13:07:50;21.33;;;13.07;;
5674;SDS011;2860;54.284;10.158;2022-10-15T13:10:18;16.30;;;13.82;;
5674;SDS011;2860;54.284;10.158;2022-10-15T13:12:52;20.65;;;13.15;;
5674;SDS011;2860;54.284;10.158;2022-10-15T13:15:22;12.75;;;11.02;;
5674;SDS011;2860;54.284;10.158;2022-10-15T13:17:51;12.68;;;11.48;;
5674;SDS011;2860;54.284;10.158;2022-10-15T13:20:30;16.48;;;10.82;;
5674;SDS011;2860;54.284;10.158;2022-10-15T13:23:07;14.40;;;11.02;;
5674;SDS011;2860;54.284;10.158;2022-10-15T13:25:42;11.75;;;9.80;;
5674;SDS011;2860;54.284;10.158;2022-10-15T13:31:11;13.07;;;8.65;;
5674;SDS011;2860;54.284;10.158;2022-10-15T13:33:40;8.80;;;7.68;;
5674;SDS011;2860;54.284;10.158;2022-10-15T13:36:08;11.70;;;8.70;;
5674;SDS011;2860;54.284;10.158;2022-10-15T13:38:41;9.35;;;8.60;;
5674;SDS011;2860;54.284;10.158;2022-10-15T13:41:06;12.43;;;8.73;;
5674;SDS011;2860;54.284;10.158;2022-10-15T13:43:32;13.55;;;8.18;;
5674;SDS011;2860;54.284;10.158;2022-10-15T13:45:58;7.97;;;6.82;;
5674;SDS011;2860;54.284;10.158;2022-10-15T13:48:26;18.75;;;8.50;;
5674;SDS011;2860;54.284;10.158;2022-10-15T13:50:55;9.85;;;8.85;;
5674;SDS011;2860;54.284;10.158;2022-10-15T13:53:30;12.63;;;7.18;;
5674;SDS011;2860;54.284;10.158;2022-10-15T13:56:01;9.32;;;7.28;;
5674;SDS011;2860;54.284;10.158;2022-10-15T13:58:32;10.20;;;7.05;;
5674;SDS011;2860;54.284;10.158;2022-10-15T14:00:59;8.77;;;6.50;;
5674;SDS011;2860;54.284;10.158;2022-10-15T14:03:44;11.02;;;6.93;;
5674;SDS011;2860;54.284;10.158;2022-10-15T14:06:18;10.75;;;7.00;;
5674;SDS011;2860;54.284;10.158;2022-10-15T14:08:48;7.18;;;6.50;;
5674;SDS011;2860;54.284;10.158;2022-10-15T14:11:22;12.82;;;5.80;;
5674;SDS011;2860;54.284;10.158;2022-10-15T14:13:52;10.13;;;6.13;;
5674;SDS011;2860;54.284;10.158;2022-10-15T14:16:33;6.38;;;5.82;;
5674;SDS011;2860;54.284;10.158;2022-10-15T14:21:30;10.35;;;6.38;;
5674;SDS011;2860;54.284;10.158;2022-10-15T14:24:11;6.97;;;5.47;;
5674;SDS011;2860;54.284;10.158;2022-10-15T14:26:40;7.05;;;4.28;;
5674;SDS011;2860;54.284;10.158;2022-10-15T14:29:13;4.25;;;3.95;;
5674;SDS011;2860;54.284;10.158;2022-10-15T14:31:48;3.58;;;3.17;;
5674;SDS011;2860;54.284;10.158;2022-10-15T14:36:57;3.92;;;3.60;;
5674;SDS011;2860;54.284;10.158;2022-10-15T14:42:34;3.28;;;3.20;;
5674;SDS011;2860;54.284;10.158;2022-10-15T14:44:55;3.95;;;3.63;;
5674;SDS011;2860;54.284;10.158;2022-10-15T14:47:25;3.58;;;3.22;;
5674;SDS011;2860;54.284;10.158;2022-10-15T14:49:55;7.50;;;2.95;;
5674;SDS011;2860;54.284;10.158;2022-10-15T14:52:24;3.50;;;3.25;;
5674;SDS011;2860;54.284;10.158;2022-10-15T14:57:29;3.63;;;3.35;;
5674;SDS011;2860;54.284;10.158;2022-10-15T15:00:00;3.08;;;2.97;;
5674;SDS011;2860;54.284;10.158;2022-10-15T15:02:26;5.57;;;3.35;;
5674;SDS011;2860;54.284;10.158;2022-10-15T15:07:37;4.78;;;3.97;;
5674;SDS011;2860;54.284;10.158;2022-10-15T15:10:03;5.97;;;3.55;;
5674;SDS011;2860;54.284;10.158;2022-10-15T15:12:31;3.58;;;3.25;;
5674;SDS011;2860;54.284;10.158;2022-10-15T15:14:57;3.90;;;3.60;;
5674;SDS011;2860;54.284;10.158;2022-10-15T15:17:24;5.40;;;4.00;;
5674;SDS011;2860;54.284;10.158;2022-10-15T15:19:51;8.65;;;4.13;;
5674;SDS011;2860;54.284;10.158;2022-10-15T15:22:28;6.75;;;4.00;;
5674;SDS011;2860;54.284;10.158;2022-10-15T15:24:56;4.32;;;3.95;;
5674;SDS011;2860;54.284;10.158;2022-10-15T15:27:25;5.15;;;4.32;;
5674;SDS011;2860;54.284;10.158;2022-10-15T15:29:52;4.03;;;3.40;;
5674;SDS011;2860;54.284;10.158;2022-10-15T15:32:19;4.28;;;3.33;;
5674;SDS011;2860;54.284;10.158;2022-10-15T15:34:46;3.42;;;3.30;;
5674;SDS011;2860;54.284;10.158;2022-10-15T15:37:13;4.22;;;3.95;;
5674;SDS011;2860;54.284;10.158;2022-10-15T15:39:44;8.63;;;3.72;;
5674;SDS011;2860;54.284;10.158;2022-10-15T15:42:13;4.35;;;3.90;;
5674;SDS011;2860;54.284;10.158;2022-10-15T15:44:40;5.47;;;4.25;;
5674;SDS011;2860;54.284;10.158;2022-10-15T15:47:06;4.25;;;4.05;;
5674;SDS011;2860;54.284;10.158;2022-10-15T15:49:31;4.18;;;3.80;;
5674;SDS011;2860;54.284;10.158;2022-10-15T15:51:57;7.43;;;4.05;;
5674;SDS011;2860;54.284;10.158;2022-10-15T15:54:22;4.30;;;3.97;;
5674;SDS011;2860;54.284;10.158;2022-10-15T15:56:48;4.85;;;3.50;;
5674;SDS011;2860;54.284;10.158;2022-10-15T15:59:13;4.78;;;4.50;;
5674;SDS011;2860;54.284;10.158;2022-10-15T16:01:40;5.32;;;4.85;;
5674;SDS011;2860;54.284;10.158;2022-10-15T16:04:06;4.75;;;4.13;;
5674;SDS011;2860;54.284;10.158;2022-10-15T16:06:32;4.78;;;4.32;;
5674;SDS011;2860;54.284;10.158;2022-10-15T16:08:57;4.07;;;3.97;;
5674;SDS011;2860;54.284;10.158;2022-10-15T16:11:23;4.68;;;4.28;;
5674;SDS011;2860;54.284;10.158;2022-10-15T16:13:49;5.13;;;4.72;;
5674;SDS011;2860;54.284;10.158;2022-10-15T16:16:14;3.97;;;3.67;;
5674;SDS011;2860;54.284;10.158;2022-10-15T16:18:40;6.78;;;4.70;;
5674;SDS011;2860;54.284;10.158;2022-10-15T16:21:05;4.78;;;4.43;;
5674;SDS011;2860;54.284;10.158;2022-10-15T16:23:31;5.75;;;5.28;;
5674;SDS011;2860;54.284;10.158;2022-10-15T16:25:56;4.95;;;4.60;;
5674;SDS011;2860;54.284;10.158;2022-10-15T16:28:22;4.90;;;4.65;;